sensor_id;sensor_type;location;lat;lon;timestamp;P1;durP1;ratioP1;P2;durP2;ratioP2
11039;SDS011;5573;49.592;8.662;2023-07-20T00:00:09;185.70;;;176.20;;
11039;SDS011;5573;49.592;8.662;2023-07-20T00:02:39;181.07;;;171.70;;
11039;SDS011;5573;49.592;8.662;2023-07-20T00:05:07;179.40;;;169.93;;
11039;SDS011;5573;49.592;8.662;2023-07-20T00:07:35;190.02;;;180.23;;
11039;SDS011;5573;49.592;8.662;2023-07-20T00:10:03;181.57;;;172.20;;
11039;SDS011;5573;49.592;8.662;2023-07-20T00:12:32;176.48;;;167.35;;
11039;SDS011;5573;49.592;8.662;2023-07-20T00:15:00;175.07;;;166.05;;
11039;SDS011;5573;49.592;8.662;2023-07-20T00:17:28;179.02;;;169.88;;
11039;SDS011;5573;49.592;8.662;2023-07-20T00:19:56;163.45;;;154.93;;
11039;SDS011;5573;49.592;8.662;2023-07-20T00:22:24;162.52;;;154.23;;
11039;SDS011;5573;49.592;8.662;2023-07-20T00:24:51;167.73;;;159.07;;
11039;SDS011;5573;49.592;8.662;2023-07-20T00:27:19;164.77;;;156.38;;
11039;SDS011;5573;49.592;8.662;2023-07-20T00:29:48;158.90;;;150.75;;
11039;SDS011;5573;49.592;8.662;2023-07-20T00:32:16;168.93;;;160.23;;
11039;SDS011;5573;49.592;8.662;2023-07-20T00:34:44;172.18;;;163.32;;
11039;SDS011;5573;49.592;8.662;2023-07-20T00:37:13;180.23;;;170.98;;
11039;SDS011;5573;49.592;8.662;2023-07-20T00:39:41;168.45;;;159.68;;
11039;SDS011;5573;49.592;8.662;2023-07-20T00:42:08;165.95;;;157.35;;
11039;SDS011;5573;49.592;8.662;2023-07-20T00:44:36;154.63;;;146.77;;
11039;SDS011;5573;49.592;8.662;2023-07-20T00:47:05;153.23;;;145.35;;
11039;SDS011;5573;49.592;8.662;2023-07-20T00:49:33;156.77;;;148.75;;
11039;SDS011;5573;49.592;8.662;2023-07-20T00:52:03;165.35;;;156.77;;
11039;SDS011;5573;49.592;8.662;2023-07-20T00:54:34;153.93;;;146.02;;
11039;SDS011;5573;49.592;8.662;2023-07-20T00:57:04;143.38;;;135.98;;
11039;SDS011;5573;49.592;8.662;2023-07-20T00:59:34;161.90;;;153.57;;
11039;SDS011;5573;49.592;8.662;2023-07-20T01:02:03;142.93;;;135.65;;
11039;SDS011;5573;49.592;8.662;2023-07-20T01:04:33;159.90;;;151.82;;
11039;SDS011;5573;49.592;8.662;2023-07-20T01:07:03;154.23;;;146.27;;
11039;SDS011;5573;49.592;8.662;2023-07-20T01:09:39;142.25;;;134.98;;
11039;SDS011;5573;49.592;8.662;2023-07-20T01:12:11;146.02;;;138.55;;
11039;SDS011;5573;49.592;8.662;2023-07-20T01:14:47;140.38;;;133.18;;
11039;SDS011;5573;49.592;8.662;2023-07-20T01:17:15;134.18;;;127.20;;
11039;SDS011;5573;49.592;8.662;2023-07-20T01:19:44;133.70;;;126.85;;
11039;SDS011;5573;49.592;8.662;2023-07-20T01:22:15;142.55;;;135.30;;
11039;SDS011;5573;49.592;8.662;2023-07-20T01:25:06;127.88;;;121.13;;
11039;SDS011;5573;49.592;8.662;2023-07-20T01:28:06;124.85;;;118.38;;
11039;SDS011;5573;49.592;8.662;2023-07-20T01:30:51;134.43;;;127.47;;
11039;SDS011;5573;49.592;8.662;2023-07-20T01:33:24;130.73;;;124.05;;
11039;SDS011;5573;49.592;8.662;2023-07-20T01:35:54;138.57;;;131.40;;
11039;SDS011;5573;49.592;8.662;2023-07-20T01:38:24;139.50;;;132.20;;
11039;SDS011;5573;49.592;8.662;2023-07-20T01:40:53;145.30;;;137.70;;
11039;SDS011;5573;49.592;8.662;2023-07-20T01:43:21;140.55;;;133.30;;
11039;SDS011;5573;49.592;8.662;2023-07-20T01:45:49;142.70;;;135.20;;
11039;SDS011;5573;49.592;8.662;2023-07-20T01:48:17;131.80;;;125.00;;
11039;SDS011;5573;49.592;8.662;2023-07-20T01:50:46;135.57;;;128.57;;
11039;SDS011;5573;49.592;8.662;2023-07-20T01:53:14;144.50;;;137.02;;
11039;SDS011;5573;49.592;8.662;2023-07-20T01:55:42;137.25;;;130.18;;
11039;SDS011;5573;49.592;8.662;2023-07-20T01:58:11;143.25;;;135.80;;
11039;SDS011;5573;49.592;8.662;2023-07-20T02:00:39;142.60;;;135.10;;
11039;SDS011;5573;49.592;8.662;2023-07-20T02:03:07;155.80;;;147.68;;
11039;SDS011;5573;49.592;8.662;2023-07-20T02:05:35;163.23;;;154.75;;
11039;SDS011;5573;49.592;8.662;2023-07-20T02:08:04;167.52;;;158.85;;
11039;SDS011;5573;49.592;8.662;2023-07-20T02:10:32;164.05;;;155.48;;
11039;SDS011;5573;49.592;8.662;2023-07-20T02:13:00;178.30;;;168.88;;
11039;SDS011;5573;49.592;8.662;2023-07-20T02:15:28;174.95;;;165.82;;
11039;SDS011;5573;49.592;8.662;2023-07-20T02:17:55;165.75;;;157.10;;
11039;SDS011;5573;49.592;8.662;2023-07-20T02:20:23;177.50;;;168.35;;
11039;SDS011;5573;49.592;8.662;2023-07-20T02:22:51;179.15;;;169.93;;
11039;SDS011;5573;49.592;8.662;2023-07-20T02:25:20;179.77;;;170.55;;
11039;SDS011;5573;49.592;8.662;2023-07-20T02:27:48;188.45;;;178.75;;
11039;SDS011;5573;49.592;8.662;2023-07-20T02:30:16;184.27;;;174.77;;
11039;SDS011;5573;49.592;8.662;2023-07-20T02:32:44;184.27;;;174.85;;
11039;SDS011;5573;49.592;8.662;2023-07-20T02:35:15;196.48;;;186.52;;
11039;SDS011;5573;49.592;8.662;2023-07-20T02:37:43;185.73;;;176.27;;
11039;SDS011;5573;49.592;8.662;2023-07-20T02:40:11;187.30;;;177.80;;
11039;SDS011;5573;49.592;8.662;2023-07-20T02:42:40;182.23;;;172.82;;
11039;SDS011;5573;49.592;8.662;2023-07-20T02:45:08;186.25;;;176.80;;
11039;SDS011;5573;49.592;8.662;2023-07-20T02:47:36;177.75;;;168.70;;
11039;SDS011;5573;49.592;8.662;2023-07-20T02:50:06;182.23;;;172.90;;
11039;SDS011;5573;49.592;8.662;2023-07-20T02:52:35;187.48;;;177.95;;
11039;SDS011;5573;49.592;8.662;2023-07-20T02:55:03;182.48;;;173.18;;
11039;SDS011;5573;49.592;8.662;2023-07-20T02:57:32;180.00;;;170.90;;
11039;SDS011;5573;49.592;8.662;2023-07-20T03:00:01;174.18;;;165.23;;
11039;SDS011;5573;49.592;8.662;2023-07-20T03:02:30;161.88;;;153.50;;
11039;SDS011;5573;49.592;8.662;2023-07-20T03:04:58;159.88;;;151.55;;
11039;SDS011;5573;49.592;8.662;2023-07-20T03:07:27;167.45;;;158.93;;
11039;SDS011;5573;49.592;8.662;2023-07-20T03:09:56;165.93;;;157.43;;
11039;SDS011;5573;49.592;8.662;2023-07-20T03:12:24;153.18;;;145.43;;
11039;SDS011;5573;49.592;8.662;2023-07-20T03:14:51;146.02;;;138.50;;
11039;SDS011;5573;49.592;8.662;2023-07-20T03:17:22;153.85;;;145.98;;
11039;SDS011;5573;49.592;8.662;2023-07-20T03:19:50;159.48;;;151.15;;
11039;SDS011;5573;49.592;8.662;2023-07-20T03:22:18;151.07;;;143.32;;
11039;SDS011;5573;49.592;8.662;2023-07-20T03:24:45;151.52;;;143.55;;
11039;SDS011;5573;49.592;8.662;2023-07-20T03:27:13;147.60;;;139.95;;
11039;SDS011;5573;49.592;8.662;2023-07-20T03:29:41;144.10;;;136.60;;
11039;SDS011;5573;49.592;8.662;2023-07-20T03:32:09;149.18;;;141.38;;
11039;SDS011;5573;49.592;8.662;2023-07-20T03:34:38;146.00;;;138.38;;
11039;SDS011;5573;49.592;8.662;2023-07-20T03:37:06;141.73;;;134.32;;
11039;SDS011;5573;49.592;8.662;2023-07-20T03:39:34;148.80;;;141.05;;
11039;SDS011;5573;49.592;8.662;2023-07-20T03:42:03;143.93;;;136.48;;
11039;SDS011;5573;49.592;8.662;2023-07-20T03:44:32;141.30;;;133.95;;
11039;SDS011;5573;49.592;8.662;2023-07-20T03:47:00;140.50;;;133.20;;
11039;SDS011;5573;49.592;8.662;2023-07-20T03:49:30;142.65;;;135.20;;
11039;SDS011;5573;49.592;8.662;2023-07-20T03:51:59;134.15;;;127.13;;
11039;SDS011;5573;49.592;8.662;2023-07-20T03:54:29;138.18;;;130.88;;
11039;SDS011;5573;49.592;8.662;2023-07-20T03:56:57;144.90;;;137.13;;
11039;SDS011;5573;49.592;8.662;2023-07-20T03:59:25;138.95;;;131.38;;
11039;SDS011;5573;49.592;8.662;2023-07-20T04:01:53;133.82;;;126.72;;
11039;SDS011;5573;49.592;8.662;2023-07-20T04:04:21;130.27;;;123.47;;
11039;SDS011;5573;49.592;8.662;2023-07-20T04:06:49;130.80;;;123.95;;
11039;SDS011;5573;49.592;8.662;2023-07-20T04:09:20;131.20;;;124.32;;
11039;SDS011;5573;49.592;8.662;2023-07-20T04:11:48;126.38;;;119.72;;
11039;SDS011;5573;49.592;8.662;2023-07-20T04:14:16;125.68;;;119.13;;
11039;SDS011;5573;49.592;8.662;2023-07-20T04:16:45;129.82;;;123.13;;
11039;SDS011;5573;49.592;8.662;2023-07-20T04:19:14;137.40;;;130.27;;
11039;SDS011;5573;49.592;8.662;2023-07-20T04:21:42;119.20;;;113.07;;
11039;SDS011;5573;49.592;8.662;2023-07-20T04:24:10;126.43;;;119.95;;
11039;SDS011;5573;49.592;8.662;2023-07-20T04:26:39;132.85;;;125.95;;
11039;SDS011;5573;49.592;8.662;2023-07-20T04:29:07;132.05;;;125.25;;
11039;SDS011;5573;49.592;8.662;2023-07-20T04:31:38;134.65;;;127.65;;
11039;SDS011;5573;49.592;8.662;2023-07-20T04:34:07;128.90;;;122.28;;
11039;SDS011;5573;49.592;8.662;2023-07-20T04:36:35;131.13;;;124.38;;
11039;SDS011;5573;49.592;8.662;2023-07-20T04:39:04;127.32;;;120.78;;
11039;SDS011;5573;49.592;8.662;2023-07-20T04:41:56;129.80;;;123.18;;
11039;SDS011;5573;49.592;8.662;2023-07-20T04:44:24;129.23;;;122.60;;
11039;SDS011;5573;49.592;8.662;2023-07-20T04:46:52;135.82;;;128.88;;
11039;SDS011;5573;49.592;8.662;2023-07-20T04:49:20;133.05;;;126.10;;
11039;SDS011;5573;49.592;8.662;2023-07-20T04:51:48;132.05;;;125.18;;
11039;SDS011;5573;49.592;8.662;2023-07-20T04:54:17;134.85;;;127.90;;
11039;SDS011;5573;49.592;8.662;2023-07-20T04:56:46;135.80;;;128.77;;
11039;SDS011;5573;49.592;8.662;2023-07-20T04:59:19;150.43;;;142.68;;
11039;SDS011;5573;49.592;8.662;2023-07-20T05:01:47;148.48;;;140.75;;
11039;SDS011;5573;49.592;8.662;2023-07-20T05:04:16;145.55;;;138.02;;
11039;SDS011;5573;49.592;8.662;2023-07-20T05:06:45;153.18;;;145.32;;
11039;SDS011;5573;49.592;8.662;2023-07-20T05:09:13;161.05;;;152.65;;
11039;SDS011;5573;49.592;8.662;2023-07-20T05:11:41;165.70;;;157.02;;
11039;SDS011;5573;49.592;8.662;2023-07-20T05:14:08;167.57;;;158.60;;
11039;SDS011;5573;49.592;8.662;2023-07-20T05:16:38;180.98;;;171.45;;
11039;SDS011;5573;49.592;8.662;2023-07-20T05:19:07;195.90;;;185.75;;
11039;SDS011;5573;49.592;8.662;2023-07-20T05:21:35;203.00;;;192.48;;
11039;SDS011;5573;49.592;8.662;2023-07-20T05:24:02;216.63;;;205.45;;
11039;SDS011;5573;49.592;8.662;2023-07-20T05:26:31;225.50;;;213.90;;
11039;SDS011;5573;49.592;8.662;2023-07-20T05:28:59;214.90;;;203.77;;
11039;SDS011;5573;49.592;8.662;2023-07-20T05:31:27;220.18;;;209.05;;
11039;SDS011;5573;49.592;8.662;2023-07-20T05:33:58;218.88;;;207.60;;
11039;SDS011;5573;49.592;8.662;2023-07-20T05:36:26;227.65;;;216.00;;
11039;SDS011;5573;49.592;8.662;2023-07-20T05:38:54;209.90;;;199.23;;
11039;SDS011;5573;49.592;8.662;2023-07-20T05:41:22;240.18;;;228.07;;
11039;SDS011;5573;49.592;8.662;2023-07-20T05:43:49;242.43;;;230.18;;
11039;SDS011;5573;49.592;8.662;2023-07-20T05:46:18;231.60;;;219.75;;
11039;SDS011;5573;49.592;8.662;2023-07-20T05:48:46;233.88;;;221.95;;
11039;SDS011;5573;49.592;8.662;2023-07-20T05:51:15;202.57;;;192.27;;
11039;SDS011;5573;49.592;8.662;2023-07-20T05:53:43;199.98;;;189.80;;
11039;SDS011;5573;49.592;8.662;2023-07-20T05:56:10;175.18;;;166.13;;
11039;SDS011;5573;49.592;8.662;2023-07-20T05:58:38;170.43;;;161.57;;
11039;SDS011;5573;49.592;8.662;2023-07-20T06:01:06;158.48;;;150.15;;
11039;SDS011;5573;49.592;8.662;2023-07-20T06:03:34;156.25;;;148.07;;
11039;SDS011;5573;49.592;8.662;2023-07-20T06:06:02;151.63;;;143.57;;
11039;SDS011;5573;49.592;8.662;2023-07-20T06:08:33;146.43;;;138.77;;
11039;SDS011;5573;49.592;8.662;2023-07-20T06:11:01;147.15;;;139.55;;
11039;SDS011;5573;49.592;8.662;2023-07-20T06:13:29;133.15;;;126.30;;
11039;SDS011;5573;49.592;8.662;2023-07-20T06:15:57;137.52;;;130.38;;
11039;SDS011;5573;49.592;8.662;2023-07-20T06:18:25;128.35;;;121.72;;
11039;SDS011;5573;49.592;8.662;2023-07-20T06:20:53;130.43;;;123.68;;
11039;SDS011;5573;49.592;8.662;2023-07-20T06:23:21;123.65;;;117.32;;
11039;SDS011;5573;49.592;8.662;2023-07-20T06:25:50;132.13;;;125.38;;
11039;SDS011;5573;49.592;8.662;2023-07-20T06:28:18;131.05;;;124.38;;
11039;SDS011;5573;49.592;8.662;2023-07-20T06:30:46;129.60;;;122.97;;
11039;SDS011;5573;49.592;8.662;2023-07-20T06:33:14;135.43;;;128.43;;
11039;SDS011;5573;49.592;8.662;2023-07-20T06:35:42;141.30;;;134.13;;
11039;SDS011;5573;49.592;8.662;2023-07-20T06:38:10;146.40;;;138.93;;
11039;SDS011;5573;49.592;8.662;2023-07-20T06:40:41;146.65;;;139.15;;
11039;SDS011;5573;49.592;8.662;2023-07-20T06:43:10;143.60;;;136.38;;
11039;SDS011;5573;49.592;8.662;2023-07-20T06:45:41;155.88;;;148.02;;
11039;SDS011;5573;49.592;8.662;2023-07-20T06:48:09;156.25;;;148.30;;
11039;SDS011;5573;49.592;8.662;2023-07-20T06:50:37;159.82;;;151.80;;
11039;SDS011;5573;49.592;8.662;2023-07-20T06:53:05;149.38;;;141.80;;
11039;SDS011;5573;49.592;8.662;2023-07-20T06:55:32;155.32;;;147.43;;
11039;SDS011;5573;49.592;8.662;2023-07-20T06:58:07;147.52;;;140.00;;
11039;SDS011;5573;49.592;8.662;2023-07-20T07:00:37;138.50;;;131.55;;
11039;SDS011;5573;49.592;8.662;2023-07-20T07:03:05;142.23;;;135.05;;
11039;SDS011;5573;49.592;8.662;2023-07-20T07:05:35;164.00;;;155.77;;
11039;SDS011;5573;49.592;8.662;2023-07-20T07:08:04;193.60;;;183.75;;
11039;SDS011;5573;49.592;8.662;2023-07-20T07:10:32;180.80;;;171.48;;
11039;SDS011;5573;49.592;8.662;2023-07-20T07:13:02;166.00;;;157.27;;
11039;SDS011;5573;49.592;8.662;2023-07-20T07:15:31;170.60;;;161.73;;
11039;SDS011;5573;49.592;8.662;2023-07-20T07:18:01;170.73;;;161.88;;
11039;SDS011;5573;49.592;8.662;2023-07-20T07:20:30;180.80;;;171.40;;
11039;SDS011;5573;49.592;8.662;2023-07-20T07:22:58;184.93;;;175.25;;
11039;SDS011;5573;49.592;8.662;2023-07-20T07:25:27;180.57;;;171.00;;
11039;SDS011;5573;49.592;8.662;2023-07-20T07:27:55;214.93;;;203.85;;
11039;SDS011;5573;49.592;8.662;2023-07-20T07:30:23;243.25;;;230.90;;
11039;SDS011;5573;49.592;8.662;2023-07-20T07:32:51;258.92;;;245.93;;
11039;SDS011;5573;49.592;8.662;2023-07-20T07:35:21;250.70;;;237.82;;
11039;SDS011;5573;49.592;8.662;2023-07-20T07:37:49;286.58;;;271.88;;
11039;SDS011;5573;49.592;8.662;2023-07-20T07:40:35;270.15;;;256.30;;
11039;SDS011;5573;49.592;8.662;2023-07-20T07:43:02;301.73;;;286.00;;
11039;SDS011;5573;49.592;8.662;2023-07-20T07:45:31;288.25;;;273.25;;
11039;SDS011;5573;49.592;8.662;2023-07-20T07:48:03;282.75;;;268.38;;
11039;SDS011;5573;49.592;8.662;2023-07-20T07:50:33;253.05;;;240.18;;
11039;SDS011;5573;49.592;8.662;2023-07-20T07:53:01;238.50;;;226.38;;
11039;SDS011;5573;49.592;8.662;2023-07-20T07:55:29;272.33;;;258.63;;
11039;SDS011;5573;49.592;8.662;2023-07-20T07:57:57;308.42;;;292.55;;
11039;SDS011;5573;49.592;8.662;2023-07-20T08:00:25;324.88;;;308.25;;
11039;SDS011;5573;49.592;8.662;2023-07-20T08:02:53;286.50;;;271.92;;
11039;SDS011;5573;49.592;8.662;2023-07-20T08:05:22;280.25;;;266.38;;
11039;SDS011;5573;49.592;8.662;2023-07-20T08:07:51;267.90;;;254.23;;
11039;SDS011;5573;49.592;8.662;2023-07-20T08:10:20;254.18;;;241.20;;
11039;SDS011;5573;49.592;8.662;2023-07-20T08:12:47;255.45;;;242.40;;
11039;SDS011;5573;49.592;8.662;2023-07-20T08:15:15;260.02;;;246.73;;
11039;SDS011;5573;49.592;8.662;2023-07-20T08:17:43;251.07;;;238.07;;
11039;SDS011;5573;49.592;8.662;2023-07-20T08:20:12;237.90;;;225.48;;
11039;SDS011;5573;49.592;8.662;2023-07-20T08:22:40;269.17;;;255.18;;
11039;SDS011;5573;49.592;8.662;2023-07-20T08:25:10;258.25;;;244.60;;
11039;SDS011;5573;49.592;8.662;2023-07-20T08:27:37;263.70;;;250.02;;
11039;SDS011;5573;49.592;8.662;2023-07-20T08:30:06;253.85;;;240.40;;
11039;SDS011;5573;49.592;8.662;2023-07-20T08:32:35;241.93;;;229.30;;
11039;SDS011;5573;49.592;8.662;2023-07-20T08:35:03;259.17;;;245.75;;
11039;SDS011;5573;49.592;8.662;2023-07-20T08:37:32;266.92;;;252.98;;
11039;SDS011;5573;49.592;8.662;2023-07-20T08:40:00;251.55;;;238.23;;
11039;SDS011;5573;49.592;8.662;2023-07-20T08:42:31;257.17;;;243.73;;
11039;SDS011;5573;49.592;8.662;2023-07-20T08:44:59;262.60;;;249.07;;
11039;SDS011;5573;49.592;8.662;2023-07-20T08:47:28;255.23;;;241.93;;
11039;SDS011;5573;49.592;8.662;2023-07-20T08:49:56;271.67;;;257.83;;
11039;SDS011;5573;49.592;8.662;2023-07-20T08:52:24;282.80;;;268.17;;
11039;SDS011;5573;49.592;8.662;2023-07-20T08:54:52;272.52;;;258.27;;
11039;SDS011;5573;49.592;8.662;2023-07-20T08:57:20;261.38;;;248.00;;
11039;SDS011;5573;49.592;8.662;2023-07-20T08:59:50;271.75;;;257.80;;
11039;SDS011;5573;49.592;8.662;2023-07-20T09:02:20;245.65;;;233.00;;
11039;SDS011;5573;49.592;8.662;2023-07-20T09:04:54;256.00;;;242.85;;
11039;SDS011;5573;49.592;8.662;2023-07-20T09:07:22;267.63;;;254.10;;
11039;SDS011;5573;49.592;8.662;2023-07-20T09:09:51;241.00;;;228.38;;
11039;SDS011;5573;49.592;8.662;2023-07-20T09:12:19;254.02;;;241.07;;
11039;SDS011;5573;49.592;8.662;2023-07-20T09:14:48;229.15;;;217.23;;
11039;SDS011;5573;49.592;8.662;2023-07-20T09:17:17;240.25;;;227.88;;
11039;SDS011;5573;49.592;8.662;2023-07-20T09:19:46;248.15;;;235.40;;
11039;SDS011;5573;49.592;8.662;2023-07-20T09:22:15;256.85;;;243.68;;
11039;SDS011;5573;49.592;8.662;2023-07-20T09:24:43;250.38;;;237.38;;
11039;SDS011;5573;49.592;8.662;2023-07-20T09:27:12;246.40;;;233.68;;
11039;SDS011;5573;49.592;8.662;2023-07-20T09:29:47;255.73;;;242.40;;
11039;SDS011;5573;49.592;8.662;2023-07-20T09:32:19;241.40;;;228.88;;
11039;SDS011;5573;49.592;8.662;2023-07-20T09:34:51;254.65;;;241.45;;
11039;SDS011;5573;49.592;8.662;2023-07-20T09:37:20;242.93;;;230.40;;
11039;SDS011;5573;49.592;8.662;2023-07-20T09:39:48;264.55;;;250.85;;
11039;SDS011;5573;49.592;8.662;2023-07-20T09:42:22;270.75;;;256.83;;
11039;SDS011;5573;49.592;8.662;2023-07-20T09:44:54;284.83;;;270.25;;
11039;SDS011;5573;49.592;8.662;2023-07-20T09:47:24;280.85;;;266.52;;
11039;SDS011;5573;49.592;8.662;2023-07-20T09:49:57;284.73;;;270.20;;
11039;SDS011;5573;49.592;8.662;2023-07-20T09:52:30;281.05;;;266.63;;
11039;SDS011;5573;49.592;8.662;2023-07-20T09:55:01;289.77;;;275.23;;
11039;SDS011;5573;49.592;8.662;2023-07-20T09:57:30;267.20;;;253.57;;
11039;SDS011;5573;49.592;8.662;2023-07-20T10:00:01;293.83;;;278.88;;
11039;SDS011;5573;49.592;8.662;2023-07-20T10:02:40;293.48;;;278.60;;
11039;SDS011;5573;49.592;8.662;2023-07-20T10:05:11;288.30;;;273.77;;
11039;SDS011;5573;49.592;8.662;2023-07-20T10:07:43;288.35;;;273.75;;
11039;SDS011;5573;49.592;8.662;2023-07-20T10:10:14;283.98;;;269.50;;
11039;SDS011;5573;49.592;8.662;2023-07-20T10:12:44;303.33;;;287.80;;
11039;SDS011;5573;49.592;8.662;2023-07-20T10:15:19;291.17;;;276.30;;
11039;SDS011;5573;49.592;8.662;2023-07-20T10:17:56;282.48;;;268.20;;
11039;SDS011;5573;49.592;8.662;2023-07-20T10:20:27;293.35;;;278.30;;
11039;SDS011;5573;49.592;8.662;2023-07-20T10:22:57;288.73;;;274.13;;
11039;SDS011;5573;49.592;8.662;2023-07-20T10:25:26;287.88;;;273.38;;
11039;SDS011;5573;49.592;8.662;2023-07-20T10:27:55;289.95;;;275.58;;
11039;SDS011;5573;49.592;8.662;2023-07-20T10:30:24;271.40;;;257.50;;
11039;SDS011;5573;49.592;8.662;2023-07-20T10:32:54;287.83;;;273.25;;
11039;SDS011;5573;49.592;8.662;2023-07-20T10:35:23;290.98;;;276.38;;
11039;SDS011;5573;49.592;8.662;2023-07-20T10:37:54;284.45;;;270.08;;
11039;SDS011;5573;49.592;8.662;2023-07-20T10:40:23;276.55;;;262.45;;
11039;SDS011;5573;49.592;8.662;2023-07-20T10:42:56;287.52;;;273.05;;
11039;SDS011;5573;49.592;8.662;2023-07-20T10:45:34;281.80;;;267.50;;
11039;SDS011;5573;49.592;8.662;2023-07-20T10:48:17;276.08;;;262.08;;
11039;SDS011;5573;49.592;8.662;2023-07-20T10:53:36;277.50;;;263.58;;
11039;SDS011;5573;49.592;8.662;2023-07-20T10:56:08;265.95;;;252.60;;
11039;SDS011;5573;49.592;8.662;2023-07-20T10:58:39;276.73;;;262.75;;
11039;SDS011;5573;49.592;8.662;2023-07-20T11:01:09;289.35;;;274.58;;
11039;SDS011;5573;49.592;8.662;2023-07-20T11:03:49;268.90;;;255.30;;
11039;SDS011;5573;49.592;8.662;2023-07-20T11:06:32;297.83;;;282.63;;
11039;SDS011;5573;49.592;8.662;2023-07-20T11:09:05;285.45;;;271.25;;
11039;SDS011;5573;49.592;8.662;2023-07-20T11:11:38;288.40;;;273.85;;
11039;SDS011;5573;49.592;8.662;2023-07-20T11:14:07;300.52;;;285.25;;
11039;SDS011;5573;49.592;8.662;2023-07-20T11:16:37;279.75;;;265.52;;
11039;SDS011;5573;49.592;8.662;2023-07-20T11:19:17;270.35;;;256.60;;
11039;SDS011;5573;49.592;8.662;2023-07-20T11:21:50;267.88;;;254.55;;
11039;SDS011;5573;49.592;8.662;2023-07-20T11:24:29;254.23;;;241.50;;
11039;SDS011;5573;49.592;8.662;2023-07-20T11:26:58;265.23;;;251.90;;
11039;SDS011;5573;49.592;8.662;2023-07-20T11:29:27;266.23;;;253.00;;
11039;SDS011;5573;49.592;8.662;2023-07-20T11:32:00;264.67;;;251.43;;
11039;SDS011;5573;49.592;8.662;2023-07-20T11:34:32;286.33;;;271.90;;
11039;SDS011;5573;49.592;8.662;2023-07-20T11:37:02;280.27;;;266.08;;
11039;SDS011;5573;49.592;8.662;2023-07-20T11:39:32;293.25;;;278.25;;
11039;SDS011;5573;49.592;8.662;2023-07-20T11:42:00;271.25;;;257.58;;
11039;SDS011;5573;49.592;8.662;2023-07-20T11:44:28;283.63;;;269.30;;
11039;SDS011;5573;49.592;8.662;2023-07-20T11:47:00;260.50;;;247.13;;
11039;SDS011;5573;49.592;8.662;2023-07-20T11:49:30;276.17;;;262.13;;
11039;SDS011;5573;49.592;8.662;2023-07-20T11:52:02;256.58;;;243.43;;
11039;SDS011;5573;49.592;8.662;2023-07-20T11:54:31;252.88;;;239.63;;
11039;SDS011;5573;49.592;8.662;2023-07-20T11:57:00;227.23;;;215.50;;
11039;SDS011;5573;49.592;8.662;2023-07-20T11:59:28;241.88;;;229.25;;
11039;SDS011;5573;49.592;8.662;2023-07-20T12:01:58;232.95;;;220.95;;
11039;SDS011;5573;49.592;8.662;2023-07-20T12:04:29;234.52;;;222.52;;
11039;SDS011;5573;49.592;8.662;2023-07-20T12:06:58;245.25;;;232.63;;
11039;SDS011;5573;49.592;8.662;2023-07-20T12:09:28;243.45;;;230.93;;
11039;SDS011;5573;49.592;8.662;2023-07-20T12:12:18;238.57;;;226.45;;
11039;SDS011;5573;49.592;8.662;2023-07-20T12:14:46;225.18;;;213.60;;
11039;SDS011;5573;49.592;8.662;2023-07-20T12:17:14;209.85;;;199.10;;
11039;SDS011;5573;49.592;8.662;2023-07-20T12:19:42;227.23;;;215.60;;
11039;SDS011;5573;49.592;8.662;2023-07-20T12:22:10;219.68;;;208.30;;
11039;SDS011;5573;49.592;8.662;2023-07-20T12:24:40;216.48;;;205.27;;
11039;SDS011;5573;49.592;8.662;2023-07-20T12:27:08;214.60;;;203.68;;
11039;SDS011;5573;49.592;8.662;2023-07-20T12:29:36;214.73;;;203.68;;
11039;SDS011;5573;49.592;8.662;2023-07-20T12:32:04;206.23;;;195.77;;
11039;SDS011;5573;49.592;8.662;2023-07-20T12:34:33;209.00;;;198.30;;
11039;SDS011;5573;49.592;8.662;2023-07-20T12:37:02;206.10;;;195.45;;
11039;SDS011;5573;49.592;8.662;2023-07-20T12:39:31;190.95;;;181.13;;
11039;SDS011;5573;49.592;8.662;2023-07-20T12:42:00;216.32;;;205.25;;
11039;SDS011;5573;49.592;8.662;2023-07-20T12:44:28;236.63;;;224.57;;
11039;SDS011;5573;49.592;8.662;2023-07-20T12:46:56;233.55;;;221.70;;
11039;SDS011;5573;49.592;8.662;2023-07-20T12:49:24;223.82;;;212.50;;
11039;SDS011;5573;49.592;8.662;2023-07-20T12:51:52;228.05;;;216.50;;
11039;SDS011;5573;49.592;8.662;2023-07-20T12:54:20;225.18;;;213.63;;
11039;SDS011;5573;49.592;8.662;2023-07-20T12:56:48;209.02;;;198.27;;
11039;SDS011;5573;49.592;8.662;2023-07-20T12:59:20;203.98;;;193.48;;
11039;SDS011;5573;49.592;8.662;2023-07-20T13:01:48;218.00;;;206.77;;
11039;SDS011;5573;49.592;8.662;2023-07-20T13:04:16;222.80;;;211.27;;
11039;SDS011;5573;49.592;8.662;2023-07-20T13:06:45;215.95;;;204.95;;
11039;SDS011;5573;49.592;8.662;2023-07-20T13:09:12;200.07;;;190.02;;
11039;SDS011;5573;49.592;8.662;2023-07-20T13:11:40;202.85;;;192.75;;
11039;SDS011;5573;49.592;8.662;2023-07-20T13:14:08;200.10;;;189.95;;
11039;SDS011;5573;49.592;8.662;2023-07-20T13:16:39;218.82;;;207.63;;
11039;SDS011;5573;49.592;8.662;2023-07-20T13:19:07;207.05;;;196.43;;
11039;SDS011;5573;49.592;8.662;2023-07-20T13:21:36;203.20;;;192.70;;
11039;SDS011;5573;49.592;8.662;2023-07-20T13:24:04;203.55;;;192.93;;
11039;SDS011;5573;49.592;8.662;2023-07-20T13:26:33;219.45;;;208.15;;
11039;SDS011;5573;49.592;8.662;2023-07-20T13:29:02;211.95;;;201.02;;
11039;SDS011;5573;49.592;8.662;2023-07-20T13:31:30;191.68;;;181.70;;
11039;SDS011;5573;49.592;8.662;2023-07-20T13:34:02;212.38;;;201.20;;
11039;SDS011;5573;49.592;8.662;2023-07-20T13:36:33;209.00;;;198.10;;
11039;SDS011;5573;49.592;8.662;2023-07-20T13:39:02;208.82;;;197.98;;
11039;SDS011;5573;49.592;8.662;2023-07-20T13:41:31;222.35;;;210.70;;
11039;SDS011;5573;49.592;8.662;2023-07-20T13:44:01;214.80;;;203.60;;
11039;SDS011;5573;49.592;8.662;2023-07-20T13:46:31;197.65;;;187.27;;
11039;SDS011;5573;49.592;8.662;2023-07-20T13:49:05;197.32;;;187.20;;
11039;SDS011;5573;49.592;8.662;2023-07-20T13:51:39;208.90;;;198.15;;
11039;SDS011;5573;49.592;8.662;2023-07-20T13:54:07;199.23;;;189.05;;
11039;SDS011;5573;49.592;8.662;2023-07-20T13:56:38;201.63;;;191.25;;
11039;SDS011;5573;49.592;8.662;2023-07-20T13:59:08;211.93;;;200.98;;
11039;SDS011;5573;49.592;8.662;2023-07-20T14:01:36;219.05;;;207.82;;
11039;SDS011;5573;49.592;8.662;2023-07-20T14:04:06;214.60;;;203.55;;
11039;SDS011;5573;49.592;8.662;2023-07-20T14:06:34;201.43;;;191.10;;
11039;SDS011;5573;49.592;8.662;2023-07-20T14:09:02;230.95;;;219.10;;
11039;SDS011;5573;49.592;8.662;2023-07-20T14:11:30;226.75;;;215.05;;
11039;SDS011;5573;49.592;8.662;2023-07-20T14:14:02;223.38;;;211.77;;
11039;SDS011;5573;49.592;8.662;2023-07-20T14:16:30;232.48;;;220.27;;
11039;SDS011;5573;49.592;8.662;2023-07-20T14:18:59;235.23;;;223.13;;
11039;SDS011;5573;49.592;8.662;2023-07-20T14:21:31;232.70;;;220.52;;
11039;SDS011;5573;49.592;8.662;2023-07-20T14:23:59;236.18;;;224.10;;